sensor_id;sensor_type;location;lat;lon;timestamp;P1;durP1;ratioP1;P2;durP2;ratioP2
16436;SDS011;8328;52.206;21.006;2023-07-31T00:00:34;1.80;;;1.70;;
16436;SDS011;8328;52.206;21.006;2023-07-31T00:03:00;5.63;;;2.03;;
16436;SDS011;8328;52.206;21.006;2023-07-31T00:05:26;1.90;;;1.70;;
16436;SDS011;8328;52.206;21.006;2023-07-31T00:07:52;1.80;;;1.70;;
16436;SDS011;8328;52.206;21.006;2023-07-31T00:10:19;1.50;;;1.40;;
16436;SDS011;8328;52.206;21.006;2023-07-31T00:12:44;2.07;;;1.23;;
16436;SDS011;8328;52.206;21.006;2023-07-31T00:15:11;2.10;;;1.63;;
16436;SDS011;8328;52.206;21.006;2023-07-31T00:17:38;1.70;;;1.53;;
16436;SDS011;8328;52.206;21.006;2023-07-31T00:20:04;2.03;;;1.83;;
16436;SDS011;8328;52.206;21.006;2023-07-31T00:22:30;1.83;;;1.67;;
16436;SDS011;8328;52.206;21.006;2023-07-31T00:24:56;3.27;;;1.70;;
16436;SDS011;8328;52.206;21.006;2023-07-31T00:27:22;3.17;;;1.73;;
16436;SDS011;8328;52.206;21.006;2023-07-31T00:29:48;2.03;;;1.67;;
16436;SDS011;8328;52.206;21.006;2023-07-31T00:32:14;2.40;;;1.93;;
16436;SDS011;8328;52.206;21.006;2023-07-31T00:34:40;3.10;;;1.70;;
16436;SDS011;8328;52.206;21.006;2023-07-31T00:37:06;1.57;;;1.47;;
16436;SDS011;8328;52.206;21.006;2023-07-31T00:39:33;1.80;;;1.60;;
16436;SDS011;8328;52.206;21.006;2023-07-31T00:42:00;2.50;;;1.67;;
16436;SDS011;8328;52.206;21.006;2023-07-31T00:44:26;2.27;;;1.73;;
16436;SDS011;8328;52.206;21.006;2023-07-31T00:46:52;1.90;;;1.70;;
16436;SDS011;8328;52.206;21.006;2023-07-31T00:49:19;2.00;;;1.80;;
16436;SDS011;8328;52.206;21.006;2023-07-31T00:51:53;1.83;;;1.60;;
16436;SDS011;8328;52.206;21.006;2023-07-31T00:54:19;2.60;;;1.87;;
16436;SDS011;8328;52.206;21.006;2023-07-31T00:56:45;2.30;;;1.83;;
16436;SDS011;8328;52.206;21.006;2023-07-31T00:59:13;2.20;;;2.00;;
16436;SDS011;8328;52.206;21.006;2023-07-31T01:01:39;3.00;;;1.90;;
16436;SDS011;8328;52.206;21.006;2023-07-31T01:04:06;2.40;;;1.90;;
16436;SDS011;8328;52.206;21.006;2023-07-31T01:12:20;1.70;;;1.60;;
16436;SDS011;8328;52.206;21.006;2023-07-31T01:17:36;3.00;;;2.03;;
16436;SDS011;8328;52.206;21.006;2023-07-31T01:20:03;2.00;;;1.80;;
16436;SDS011;8328;52.206;21.006;2023-07-31T01:28:13;3.37;;;2.13;;
16436;SDS011;8328;52.206;21.006;2023-07-31T01:30:44;3.00;;;2.40;;
16436;SDS011;8328;52.206;21.006;2023-07-31T01:33:14;3.30;;;1.83;;
16436;SDS011;8328;52.206;21.006;2023-07-31T01:35:42;2.53;;;2.10;;
16436;SDS011;8328;52.206;21.006;2023-07-31T01:38:09;3.13;;;2.10;;
16436;SDS011;8328;52.206;21.006;2023-07-31T01:40:35;2.40;;;2.17;;
16436;SDS011;8328;52.206;21.006;2023-07-31T01:43:01;3.10;;;1.90;;
16436;SDS011;8328;52.206;21.006;2023-07-31T01:45:27;3.37;;;2.23;;
16436;SDS011;8328;52.206;21.006;2023-07-31T01:47:53;2.40;;;1.73;;
16436;SDS011;8328;52.206;21.006;2023-07-31T01:50:19;2.47;;;2.20;;
16436;SDS011;8328;52.206;21.006;2023-07-31T01:52:45;2.57;;;2.10;;
16436;SDS011;8328;52.206;21.006;2023-07-31T01:55:11;2.97;;;2.20;;
16436;SDS011;8328;52.206;21.006;2023-07-31T01:57:37;2.87;;;2.53;;
16436;SDS011;8328;52.206;21.006;2023-07-31T02:00:03;3.40;;;2.27;;
16436;SDS011;8328;52.206;21.006;2023-07-31T02:02:30;2.73;;;2.40;;
16436;SDS011;8328;52.206;21.006;2023-07-31T02:04:56;3.30;;;2.23;;
16436;SDS011;8328;52.206;21.006;2023-07-31T02:07:22;4.20;;;2.57;;
16436;SDS011;8328;52.206;21.006;2023-07-31T02:09:48;3.23;;;2.60;;
16436;SDS011;8328;52.206;21.006;2023-07-31T02:12:14;3.03;;;2.17;;
16436;SDS011;8328;52.206;21.006;2023-07-31T02:14:40;2.80;;;2.57;;
16436;SDS011;8328;52.206;21.006;2023-07-31T02:17:06;2.87;;;2.50;;
16436;SDS011;8328;52.206;21.006;2023-07-31T02:19:32;2.90;;;2.53;;
16436;SDS011;8328;52.206;21.006;2023-07-31T02:21:58;2.60;;;2.13;;
16436;SDS011;8328;52.206;21.006;2023-07-31T02:24:24;4.63;;;2.73;;
16436;SDS011;8328;52.206;21.006;2023-07-31T02:26:49;3.93;;;2.70;;
16436;SDS011;8328;52.206;21.006;2023-07-31T02:29:15;8.87;;;2.50;;
16436;SDS011;8328;52.206;21.006;2023-07-31T02:31:41;3.30;;;2.80;;
16436;SDS011;8328;52.206;21.006;2023-07-31T02:34:07;2.83;;;2.60;;
16436;SDS011;8328;52.206;21.006;2023-07-31T02:36:32;5.13;;;2.80;;
16436;SDS011;8328;52.206;21.006;2023-07-31T02:38:58;3.07;;;2.60;;
16436;SDS011;8328;52.206;21.006;2023-07-31T02:41:24;3.00;;;2.70;;
16436;SDS011;8328;52.206;21.006;2023-07-31T02:43:50;3.17;;;2.67;;
16436;SDS011;8328;52.206;21.006;2023-07-31T02:46:15;4.27;;;3.00;;
16436;SDS011;8328;52.206;21.006;2023-07-31T02:48:41;3.60;;;2.80;;
16436;SDS011;8328;52.206;21.006;2023-07-31T02:51:07;3.57;;;2.67;;
16436;SDS011;8328;52.206;21.006;2023-07-31T02:53:33;4.13;;;2.90;;
16436;SDS011;8328;52.206;21.006;2023-07-31T02:55:58;3.93;;;2.83;;
16436;SDS011;8328;52.206;21.006;2023-07-31T02:58:24;4.63;;;2.97;;
16436;SDS011;8328;52.206;21.006;2023-07-31T03:00:50;4.63;;;2.87;;
16436;SDS011;8328;52.206;21.006;2023-07-31T03:03:16;4.73;;;2.97;;
16436;SDS011;8328;52.206;21.006;2023-07-31T03:05:42;3.73;;;2.90;;
16436;SDS011;8328;52.206;21.006;2023-07-31T03:08:08;3.27;;;2.90;;
16436;SDS011;8328;52.206;21.006;2023-07-31T03:10:34;2.93;;;2.60;;
16436;SDS011;8328;52.206;21.006;2023-07-31T03:12:59;3.60;;;2.60;;
16436;SDS011;8328;52.206;21.006;2023-07-31T03:15:26;3.10;;;2.60;;
16436;SDS011;8328;52.206;21.006;2023-07-31T03:17:52;5.03;;;3.20;;
16436;SDS011;8328;52.206;21.006;2023-07-31T03:20:17;4.90;;;2.80;;
16436;SDS011;8328;52.206;21.006;2023-07-31T03:22:43;4.73;;;2.93;;
16436;SDS011;8328;52.206;21.006;2023-07-31T03:25:09;3.20;;;2.50;;
16436;SDS011;8328;52.206;21.006;2023-07-31T03:27:35;3.63;;;2.50;;
16436;SDS011;8328;52.206;21.006;2023-07-31T03:30:02;3.60;;;2.70;;
16436;SDS011;8328;52.206;21.006;2023-07-31T03:32:28;2.83;;;2.53;;
16436;SDS011;8328;52.206;21.006;2023-07-31T03:34:53;3.03;;;2.50;;
16436;SDS011;8328;52.206;21.006;2023-07-31T03:37:19;3.10;;;2.57;;
16436;SDS011;8328;52.206;21.006;2023-07-31T03:39:45;3.50;;;2.60;;
16436;SDS011;8328;52.206;21.006;2023-07-31T03:42:11;5.77;;;2.40;;
16436;SDS011;8328;52.206;21.006;2023-07-31T03:44:37;2.90;;;2.30;;
16436;SDS011;8328;52.206;21.006;2023-07-31T03:47:02;3.07;;;2.50;;
16436;SDS011;8328;52.206;21.006;2023-07-31T03:49:29;3.20;;;2.50;;
16436;SDS011;8328;52.206;21.006;2023-07-31T03:51:54;3.63;;;2.60;;
16436;SDS011;8328;52.206;21.006;2023-07-31T03:54:20;3.57;;;2.80;;
16436;SDS011;8328;52.206;21.006;2023-07-31T03:56:46;5.23;;;2.60;;
16436;SDS011;8328;52.206;21.006;2023-07-31T03:59:12;2.67;;;2.47;;
16436;SDS011;8328;52.206;21.006;2023-07-31T04:01:37;4.17;;;2.80;;
16436;SDS011;8328;52.206;21.006;2023-07-31T04:04:03;2.83;;;2.40;;
16436;SDS011;8328;52.206;21.006;2023-07-31T04:06:30;3.03;;;2.70;;
16436;SDS011;8328;52.206;21.006;2023-07-31T04:08:56;3.53;;;2.57;;
16436;SDS011;8328;52.206;21.006;2023-07-31T04:11:21;3.37;;;2.47;;
16436;SDS011;8328;52.206;21.006;2023-07-31T04:13:47;3.13;;;2.40;;
16436;SDS011;8328;52.206;21.006;2023-07-31T04:16:13;3.00;;;2.40;;
16436;SDS011;8328;52.206;21.006;2023-07-31T04:18:39;4.27;;;2.60;;
16436;SDS011;8328;52.206;21.006;2023-07-31T04:21:05;5.50;;;2.60;;
16436;SDS011;8328;52.206;21.006;2023-07-31T04:23:31;3.17;;;2.70;;
16436;SDS011;8328;52.206;21.006;2023-07-31T04:25:56;2.40;;;2.20;;
16436;SDS011;8328;52.206;21.006;2023-07-31T04:28:22;2.60;;;2.17;;
16436;SDS011;8328;52.206;21.006;2023-07-31T04:30:48;3.47;;;2.63;;
16436;SDS011;8328;52.206;21.006;2023-07-31T04:33:14;3.47;;;2.60;;
16436;SDS011;8328;52.206;21.006;2023-07-31T04:35:40;3.47;;;2.37;;
16436;SDS011;8328;52.206;21.006;2023-07-31T04:38:05;4.00;;;2.70;;
16436;SDS011;8328;52.206;21.006;2023-07-31T04:40:31;3.27;;;2.60;;
16436;SDS011;8328;52.206;21.006;2023-07-31T04:42:58;4.83;;;2.87;;
16436;SDS011;8328;52.206;21.006;2023-07-31T04:45:23;3.27;;;2.40;;
16436;SDS011;8328;52.206;21.006;2023-07-31T04:47:50;5.17;;;3.20;;
16436;SDS011;8328;52.206;21.006;2023-07-31T04:50:16;3.53;;;2.67;;
16436;SDS011;8328;52.206;21.006;2023-07-31T04:52:41;3.57;;;2.70;;
16436;SDS011;8328;52.206;21.006;2023-07-31T04:55:07;3.43;;;2.70;;
16436;SDS011;8328;52.206;21.006;2023-07-31T04:57:33;2.87;;;2.40;;
16436;SDS011;8328;52.206;21.006;2023-07-31T04:59:59;5.10;;;2.73;;
16436;SDS011;8328;52.206;21.006;2023-07-31T05:02:25;5.87;;;2.60;;
16436;SDS011;8328;52.206;21.006;2023-07-31T05:04:51;2.83;;;2.53;;
16436;SDS011;8328;52.206;21.006;2023-07-31T05:07:17;3.53;;;2.83;;
16436;SDS011;8328;52.206;21.006;2023-07-31T05:09:43;4.60;;;2.40;;
16436;SDS011;8328;52.206;21.006;2023-07-31T05:12:09;5.87;;;2.73;;
16436;SDS011;8328;52.206;21.006;2023-07-31T05:14:35;4.57;;;2.90;;
16436;SDS011;8328;52.206;21.006;2023-07-31T05:17:00;2.87;;;2.50;;
16436;SDS011;8328;52.206;21.006;2023-07-31T05:19:26;4.07;;;2.63;;
16436;SDS011;8328;52.206;21.006;2023-07-31T05:21:52;4.67;;;2.57;;
16436;SDS011;8328;52.206;21.006;2023-07-31T05:24:18;4.00;;;2.70;;
16436;SDS011;8328;52.206;21.006;2023-07-31T05:26:44;5.17;;;2.30;;
16436;SDS011;8328;52.206;21.006;2023-07-31T05:29:09;2.87;;;2.53;;
16436;SDS011;8328;52.206;21.006;2023-07-31T05:31:35;5.33;;;2.60;;
16436;SDS011;8328;52.206;21.006;2023-07-31T05:34:04;3.13;;;2.53;;
16436;SDS011;8328;52.206;21.006;2023-07-31T05:36:30;4.00;;;2.27;;
16436;SDS011;8328;52.206;21.006;2023-07-31T05:38:55;5.23;;;2.53;;
16436;SDS011;8328;52.206;21.006;2023-07-31T05:41:22;5.77;;;2.63;;
16436;SDS011;8328;52.206;21.006;2023-07-31T05:43:50;3.20;;;2.13;;
16436;SDS011;8328;52.206;21.006;2023-07-31T05:46:16;3.10;;;2.40;;
16436;SDS011;8328;52.206;21.006;2023-07-31T05:48:42;3.30;;;2.33;;
16436;SDS011;8328;52.206;21.006;2023-07-31T05:51:08;3.33;;;2.50;;
16436;SDS011;8328;52.206;21.006;2023-07-31T05:53:34;4.03;;;2.50;;
16436;SDS011;8328;52.206;21.006;2023-07-31T05:56:01;6.63;;;2.30;;
16436;SDS011;8328;52.206;21.006;2023-07-31T05:58:27;6.53;;;2.53;;
16436;SDS011;8328;52.206;21.006;2023-07-31T06:00:52;3.53;;;2.30;;
16436;SDS011;8328;52.206;21.006;2023-07-31T06:03:18;3.43;;;2.30;;
16436;SDS011;8328;52.206;21.006;2023-07-31T06:05:44;2.63;;;2.17;;
16436;SDS011;8328;52.206;21.006;2023-07-31T06:08:10;3.33;;;2.20;;
16436;SDS011;8328;52.206;21.006;2023-07-31T06:10:36;6.23;;;2.47;;
16436;SDS011;8328;52.206;21.006;2023-07-31T06:13:02;4.17;;;2.37;;
16436;SDS011;8328;52.206;21.006;2023-07-31T06:15:30;4.83;;;2.47;;
16436;SDS011;8328;52.206;21.006;2023-07-31T06:17:55;5.47;;;3.90;;
16436;SDS011;8328;52.206;21.006;2023-07-31T06:20:24;3.30;;;2.37;;
16436;SDS011;8328;52.206;21.006;2023-07-31T06:22:49;3.40;;;2.50;;
16436;SDS011;8328;52.206;21.006;2023-07-31T06:25:15;2.90;;;2.40;;
16436;SDS011;8328;52.206;21.006;2023-07-31T06:27:42;4.10;;;2.20;;
16436;SDS011;8328;52.206;21.006;2023-07-31T06:30:08;4.87;;;3.13;;
16436;SDS011;8328;52.206;21.006;2023-07-31T06:32:35;4.80;;;2.80;;
16436;SDS011;8328;52.206;21.006;2023-07-31T06:35:01;3.20;;;2.20;;
16436;SDS011;8328;52.206;21.006;2023-07-31T06:37:27;6.17;;;2.80;;
16436;SDS011;8328;52.206;21.006;2023-07-31T06:39:52;3.90;;;2.93;;
16436;SDS011;8328;52.206;21.006;2023-07-31T06:42:21;3.07;;;2.77;;
16436;SDS011;8328;52.206;21.006;2023-07-31T06:44:47;5.23;;;2.30;;
16436;SDS011;8328;52.206;21.006;2023-07-31T06:47:12;4.50;;;2.50;;
16436;SDS011;8328;52.206;21.006;2023-07-31T06:49:38;4.00;;;2.63;;
16436;SDS011;8328;52.206;21.006;2023-07-31T06:52:04;5.57;;;2.53;;
16436;SDS011;8328;52.206;21.006;2023-07-31T06:54:30;3.87;;;2.80;;
16436;SDS011;8328;52.206;21.006;2023-07-31T06:56:56;3.63;;;2.80;;
16436;SDS011;8328;52.206;21.006;2023-07-31T06:59:21;4.27;;;3.10;;
16436;SDS011;8328;52.206;21.006;2023-07-31T07:01:47;3.00;;;2.67;;
16436;SDS011;8328;52.206;21.006;2023-07-31T07:04:15;4.40;;;2.97;;
16436;SDS011;8328;52.206;21.006;2023-07-31T07:06:42;2.73;;;2.33;;
16436;SDS011;8328;52.206;21.006;2023-07-31T07:09:08;4.37;;;3.00;;
16436;SDS011;8328;52.206;21.006;2023-07-31T07:11:34;6.13;;;2.80;;
16436;SDS011;8328;52.206;21.006;2023-07-31T07:14:00;6.47;;;3.00;;
16436;SDS011;8328;52.206;21.006;2023-07-31T07:16:28;4.23;;;2.90;;
16436;SDS011;8328;52.206;21.006;2023-07-31T07:18:54;4.73;;;2.80;;
16436;SDS011;8328;52.206;21.006;2023-07-31T07:21:21;6.00;;;3.27;;
16436;SDS011;8328;52.206;21.006;2023-07-31T07:23:47;3.67;;;2.50;;
16436;SDS011;8328;52.206;21.006;2023-07-31T07:26:13;5.93;;;2.57;;
16436;SDS011;8328;52.206;21.006;2023-07-31T07:28:38;3.40;;;2.60;;
16436;SDS011;8328;52.206;21.006;2023-07-31T07:31:04;5.60;;;2.83;;
16436;SDS011;8328;52.206;21.006;2023-07-31T07:33:30;5.77;;;2.70;;
16436;SDS011;8328;52.206;21.006;2023-07-31T07:35:59;6.93;;;2.17;;
16436;SDS011;8328;52.206;21.006;2023-07-31T07:38:26;3.37;;;2.23;;
16436;SDS011;8328;52.206;21.006;2023-07-31T07:40:51;3.07;;;2.60;;
16436;SDS011;8328;52.206;21.006;2023-07-31T07:43:18;5.67;;;2.77;;
16436;SDS011;8328;52.206;21.006;2023-07-31T07:45:44;4.40;;;2.50;;
16436;SDS011;8328;52.206;21.006;2023-07-31T07:48:10;5.03;;;2.33;;
16436;SDS011;8328;52.206;21.006;2023-07-31T07:50:37;4.50;;;2.63;;
16436;SDS011;8328;52.206;21.006;2023-07-31T07:53:03;4.23;;;2.50;;
16436;SDS011;8328;52.206;21.006;2023-07-31T07:55:29;4.13;;;2.40;;
16436;SDS011;8328;52.206;21.006;2023-07-31T07:57:55;4.07;;;2.20;;
16436;SDS011;8328;52.206;21.006;2023-07-31T08:00:21;5.90;;;2.50;;
16436;SDS011;8328;52.206;21.006;2023-07-31T08:02:46;4.97;;;2.40;;
16436;SDS011;8328;52.206;21.006;2023-07-31T08:05:12;2.43;;;2.17;;
16436;SDS011;8328;52.206;21.006;2023-07-31T08:07:38;6.27;;;2.67;;
16436;SDS011;8328;52.206;21.006;2023-07-31T08:10:10;4.40;;;2.40;;
16436;SDS011;8328;52.206;21.006;2023-07-31T08:12:36;4.23;;;2.40;;
16436;SDS011;8328;52.206;21.006;2023-07-31T08:15:01;5.63;;;2.70;;
16436;SDS011;8328;52.206;21.006;2023-07-31T08:17:27;3.73;;;2.07;;
16436;SDS011;8328;52.206;21.006;2023-07-31T08:19:53;3.90;;;2.00;;
16436;SDS011;8328;52.206;21.006;2023-07-31T08:22:19;4.67;;;2.50;;
16436;SDS011;8328;52.206;21.006;2023-07-31T08:24:45;5.43;;;2.23;;
16436;SDS011;8328;52.206;21.006;2023-07-31T08:27:12;3.67;;;2.03;;
16436;SDS011;8328;52.206;21.006;2023-07-31T08:29:37;2.90;;;2.40;;
16436;SDS011;8328;52.206;21.006;2023-07-31T08:32:03;3.00;;;2.00;;
16436;SDS011;8328;52.206;21.006;2023-07-31T08:34:29;3.47;;;2.40;;
16436;SDS011;8328;52.206;21.006;2023-07-31T08:36:55;3.60;;;2.20;;
16436;SDS011;8328;52.206;21.006;2023-07-31T08:39:21;2.37;;;2.17;;
16436;SDS011;8328;52.206;21.006;2023-07-31T08:41:47;4.37;;;2.17;;
16436;SDS011;8328;52.206;21.006;2023-07-31T08:44:13;3.03;;;2.13;;
16436;SDS011;8328;52.206;21.006;2023-07-31T08:46:40;3.30;;;2.40;;
16436;SDS011;8328;52.206;21.006;2023-07-31T08:49:06;3.00;;;2.20;;
16436;SDS011;8328;52.206;21.006;2023-07-31T08:51:36;6.30;;;2.70;;
16436;SDS011;8328;52.206;21.006;2023-07-31T08:54:02;4.60;;;2.20;;
16436;SDS011;8328;52.206;21.006;2023-07-31T08:56:31;3.43;;;2.30;;
16436;SDS011;8328;52.206;21.006;2023-07-31T08:58:58;6.80;;;2.33;;
16436;SDS011;8328;52.206;21.006;2023-07-31T09:01:27;5.50;;;2.30;;
16436;SDS011;8328;52.206;21.006;2023-07-31T09:03:55;4.63;;;2.00;;
16436;SDS011;8328;52.206;21.006;2023-07-31T09:06:23;3.67;;;2.03;;
16436;SDS011;8328;52.206;21.006;2023-07-31T09:08:52;3.20;;;1.83;;
16436;SDS011;8328;52.206;21.006;2023-07-31T09:11:17;4.20;;;2.20;;
16436;SDS011;8328;52.206;21.006;2023-07-31T09:13:46;3.17;;;2.23;;
16436;SDS011;8328;52.206;21.006;2023-07-31T09:16:13;2.77;;;1.90;;
16436;SDS011;8328;52.206;21.006;2023-07-31T09:18:56;4.03;;;2.10;;
16436;SDS011;8328;52.206;21.006;2023-07-31T09:21:23;3.73;;;2.67;;
16436;SDS011;8328;52.206;21.006;2023-07-31T09:23:50;3.60;;;2.20;;
16436;SDS011;8328;52.206;21.006;2023-07-31T09:26:39;3.17;;;1.80;;
16436;SDS011;8328;52.206;21.006;2023-07-31T09:29:05;3.63;;;2.20;;
16436;SDS011;8328;52.206;21.006;2023-07-31T09:31:43;4.43;;;1.93;;
16436;SDS011;8328;52.206;21.006;2023-07-31T09:34:10;3.50;;;2.73;;
16436;SDS011;8328;52.206;21.006;2023-07-31T09:36:40;2.30;;;1.70;;
16436;SDS011;8328;52.206;21.006;2023-07-31T09:39:10;2.70;;;1.53;;
16436;SDS011;8328;52.206;21.006;2023-07-31T09:41:41;3.93;;;2.17;;
16436;SDS011;8328;52.206;21.006;2023-07-31T09:44:09;3.67;;;1.90;;
16436;SDS011;8328;52.206;21.006;2023-07-31T09:46:35;3.73;;;2.10;;
16436;SDS011;8328;52.206;21.006;2023-07-31T09:49:20;3.33;;;1.80;;
16436;SDS011;8328;52.206;21.006;2023-07-31T09:51:50;2.60;;;1.60;;
16436;SDS011;8328;52.206;21.006;2023-07-31T09:54:16;3.17;;;1.90;;
16436;SDS011;8328;52.206;21.006;2023-07-31T09:56:48;2.87;;;1.70;;
16436;SDS011;8328;52.206;21.006;2023-07-31T09:59:15;3.23;;;1.80;;
16436;SDS011;8328;52.206;21.006;2023-07-31T10:01:45;2.70;;;1.67;;
16436;SDS011;8328;52.206;21.006;2023-07-31T10:04:12;3.00;;;1.47;;
16436;SDS011;8328;52.206;21.006;2023-07-31T10:06:39;3.83;;;1.70;;
16436;SDS011;8328;52.206;21.006;2023-07-31T10:09:08;3.23;;;1.77;;
16436;SDS011;8328;52.206;21.006;2023-07-31T10:11:43;2.27;;;1.47;;
16436;SDS011;8328;52.206;21.006;2023-07-31T10:14:18;2.17;;;1.50;;
16436;SDS011;8328;52.206;21.006;2023-07-31T10:16:45;2.20;;;1.40;;
16436;SDS011;8328;52.206;21.006;2023-07-31T10:19:12;4.67;;;2.00;;
16436;SDS011;8328;52.206;21.006;2023-07-31T10:21:38;2.30;;;1.50;;
16436;SDS011;8328;52.206;21.006;2023-07-31T10:24:04;2.43;;;1.50;;
16436;SDS011;8328;52.206;21.006;2023-07-31T10:26:31;2.57;;;1.40;;
16436;SDS011;8328;52.206;21.006;2023-07-31T10:29:00;2.77;;;1.57;;
16436;SDS011;8328;52.206;21.006;2023-07-31T10:31:26;3.53;;;1.33;;
16436;SDS011;8328;52.206;21.006;2023-07-31T10:33:54;4.93;;;2.03;;
16436;SDS011;8328;52.206;21.006;2023-07-31T10:36:22;5.03;;;1.70;;
16436;SDS011;8328;52.206;21.006;2023-07-31T10:38:51;3.20;;;1.60;;
16436;SDS011;8328;52.206;21.006;2023-07-31T10:41:17;5.10;;;1.47;;
16436;SDS011;8328;52.206;21.006;2023-07-31T10:43:42;2.57;;;1.40;;
16436;SDS011;8328;52.206;21.006;2023-07-31T10:46:11;2.43;;;1.30;;
16436;SDS011;8328;52.206;21.006;2023-07-31T10:48:38;1.43;;;1.10;;
16436;SDS011;8328;52.206;21.006;2023-07-31T10:51:12;9.83;;;1.70;;
16436;SDS011;8328;52.206;21.006;2023-07-31T10:53:38;2.73;;;1.30;;
16436;SDS011;8328;52.206;21.006;2023-07-31T10:56:08;3.10;;;1.30;;
16436;SDS011;8328;52.206;21.006;2023-07-31T10:58:37;2.23;;;1.10;;
16436;SDS011;8328;52.206;21.006;2023-07-31T11:01:04;2.23;;;1.47;;
16436;SDS011;8328;52.206;21.006;2023-07-31T11:03:41;3.30;;;1.30;;
16436;SDS011;8328;52.206;21.006;2023-07-31T11:06:09;2.70;;;1.20;;
16436;SDS011;8328;52.206;21.006;2023-07-31T11:08:36;2.37;;;1.40;;
16436;SDS011;8328;52.206;21.006;2023-07-31T11:11:11;3.83;;;1.20;;
16436;SDS011;8328;52.206;21.006;2023-07-31T11:13:43;3.57;;;1.30;;
16436;SDS011;8328;52.206;21.006;2023-07-31T11:16:11;4.37;;;1.40;;
16436;SDS011;8328;52.206;21.006;2023-07-31T11:18:41;2.40;;;1.30;;
16436;SDS011;8328;52.206;21.006;2023-07-31T11:21:11;1.73;;;1.40;;
16436;SDS011;8328;52.206;21.006;2023-07-31T11:23:45;3.60;;;1.00;;
16436;SDS011;8328;52.206;21.006;2023-07-31T11:26:14;2.13;;;1.10;;
16436;SDS011;8328;52.206;21.006;2023-07-31T11:28:40;3.53;;;1.30;;
16436;SDS011;8328;52.206;21.006;2023-07-31T11:31:09;1.77;;;1.07;;
16436;SDS011;8328;52.206;21.006;2023-07-31T11:33:36;2.30;;;1.10;;
16436;SDS011;8328;52.206;21.006;2023-07-31T11:36:01;2.33;;;1.20;;
16436;SDS011;8328;52.206;21.006;2023-07-31T11:38:31;2.40;;;1.13;;
16436;SDS011;8328;52.206;21.006;2023-07-31T11:41:01;1.67;;;1.07;;
16436;SDS011;8328;52.206;21.006;2023-07-31T11:43:28;3.57;;;1.50;;
16436;SDS011;8328;52.206;21.006;2023-07-31T11:45:56;2.63;;;1.20;;
16436;SDS011;8328;52.206;21.006;2023-07-31T11:48:27;3.90;;;1.60;;
16436;SDS011;8328;52.206;21.006;2023-07-31T11:50:58;2.03;;;1.20;;
16436;SDS011;8328;52.206;21.006;2023-07-31T11:53:36;4.57;;;1.23;;
16436;SDS011;8328;52.206;21.006;2023-07-31T11:56:13;4.43;;;1.17;;
16436;SDS011;8328;52.206;21.006;2023-07-31T11:58:41;3.27;;;1.27;;
16436;SDS011;8328;52.206;21.006;2023-07-31T12:01:10;2.47;;;1.10;;
16436;SDS011;8328;52.206;21.006;2023-07-31T12:03:37;5.83;;;1.23;;
16436;SDS011;8328;52.206;21.006;2023-07-31T12:06:07;2.30;;;1.20;;
16436;SDS011;8328;52.206;21.006;2023-07-31T12:08:33;4.30;;;1.53;;
16436;SDS011;8328;52.206;21.006;2023-07-31T12:11:05;6.03;;;1.50;;
16436;SDS011;8328;52.206;21.006;2023-07-31T12:13:34;3.93;;;2.17;;
16436;SDS011;8328;52.206;21.006;2023-07-31T12:16:01;3.40;;;1.47;;
16436;SDS011;8328;52.206;21.006;2023-07-31T12:18:29;2.20;;;1.67;;
16436;SDS011;8328;52.206;21.006;2023-07-31T12:20:59;2.07;;;1.40;;
16436;SDS011;8328;52.206;21.006;2023-07-31T12:23:27;2.07;;;1.30;;
16436;SDS011;8328;52.206;21.006;2023-07-31T12:26:14;2.00;;;1.50;;
16436;SDS011;8328;52.206;21.006;2023-07-31T12:31:15;4.40;;;1.70;;
16436;SDS011;8328;52.206;21.006;2023-07-31T12:33:42;2.63;;;1.70;;
16436;SDS011;8328;52.206;21.006;2023-07-31T12:36:10;3.17;;;1.53;;
16436;SDS011;8328;52.206;21.006;2023-07-31T12:38:38;2.93;;;1.80;;
16436;SDS011;8328;52.206;21.006;2023-07-31T12:41:04;3.13;;;1.60;;
16436;SDS011;8328;52.206;21.006;2023-07-31T12:43:32;3.13;;;1.70;;
16436;SDS011;8328;52.206;21.006;2023-07-31T12:46:01;4.33;;;2.50;;
16436;SDS011;8328;52.206;21.006;2023-07-31T12:48:27;3.00;;;1.50;;
16436;SDS011;8328;52.206;21.006;2023-07-31T12:50:53;4.50;;;1.73;;
16436;SDS011;8328;52.206;21.006;2023-07-31T12:53:18;2.70;;;1.63;;
16436;SDS011;8328;52.206;21.006;2023-07-31T12:55:44;4.83;;;2.70;;
16436;SDS011;8328;52.206;21.006;2023-07-31T12:58:10;4.60;;;2.00;;
16436;SDS011;8328;52.206;21.006;2023-07-31T13:00:36;4.17;;;1.70;;
16436;SDS011;8328;52.206;21.006;2023-07-31T13:03:02;2.93;;;1.30;;
16436;SDS011;8328;52.206;21.006;2023-07-31T13:05:28;4.30;;;2.20;;
16436;SDS011;8328;52.206;21.006;2023-07-31T13:07:54;2.77;;;2.07;;
16436;SDS011;8328;52.206;21.006;2023-07-31T13:10:20;2.67;;;1.97;;
16436;SDS011;8328;52.206;21.006;2023-07-31T13:12:47;3.27;;;1.40;;
16436;SDS011;8328;52.206;21.006;2023-07-31T13:15:13;3.43;;;1.40;;
16436;SDS011;8328;52.206;21.006;2023-07-31T13:17:39;3.43;;;1.83;;
16436;SDS011;8328;52.206;21.006;2023-07-31T13:20:06;2.43;;;1.40;;
16436;SDS011;8328;52.206;21.006;2023-07-31T13:22:33;2.67;;;1.90;;
16436;SDS011;8328;52.206;21.006;2023-07-31T13:24:59;3.10;;;1.50;;
16436;SDS011;8328;52.206;21.006;2023-07-31T13:27:25;2.17;;;1.40;;
16436;SDS011;8328;52.206;21.006;2023-07-31T13:29:51;5.73;;;1.20;;
16436;SDS011;8328;52.206;21.006;2023-07-31T13:32:17;4.63;;;1.70;;
16436;SDS011;8328;52.206;21.006;2023-07-31T13:34:44;3.43;;;2.03;;
16436;SDS011;8328;52.206;21.006;2023-07-31T13:37:10;3.07;;;1.50;;
16436;SDS011;8328;52.206;21.006;2023-07-31T13:39:37;1.43;;;1.20;;
16436;SDS011;8328;52.206;21.006;2023-07-31T13:42:03;1.63;;;1.30;;
16436;SDS011;8328;52.206;21.006;2023-07-31T13:44:32;3.15;;;1.50;;
16436;SDS011;8328;52.206;21.006;2023-07-31T13:46:59;6.57;;;1.70;;
16436;SDS011;8328;52.206;21.006;2023-07-31T13:49:25;2.63;;;1.67;;
16436;SDS011;8328;52.206;21.006;2023-07-31T13:51:51;2.50;;;1.60;;
16436;SDS011;8328;52.206;21.006;2023-07-31T13:54:17;8.88;;;1.48;;
16436;SDS011;8328;52.206;21.006;2023-07-31T13:56:44;6.50;;;1.70;;
16436;SDS011;8328;52.206;21.006;2023-07-31T13:59:10;3.65;;;1.80;;
16436;SDS011;8328;52.206;21.006;2023-07-31T14:01:37;4.28;;;1.92;;
16436;SDS011;8328;52.206;21.006;2023-07-31T14:04:03;4.38;;;1.60;;
16436;SDS011;8328;52.206;21.006;2023-07-31T14:06:29;4.72;;;2.22;;
16436;SDS011;8328;52.206;21.006;2023-07-31T14:08:55;2.22;;;1.55;;
16436;SDS011;8328;52.206;21.006;2023-07-31T14:11:21;2.80;;;1.75;;
16436;SDS011;8328;52.206;21.006;2023-07-31T14:13:47;4.15;;;1.80;;
16436;SDS011;8328;52.206;21.006;2023-07-31T14:16:15;4.30;;;1.70;;
16436;SDS011;8328;52.206;21.006;2023-07-31T14:18:42;4.77;;;2.03;;
16436;SDS011;8328;52.206;21.006;2023-07-31T14:21:08;3.33;;;1.30;;
16436;SDS011;8328;52.206;21.006;2023-07-31T14:23:33;3.03;;;1.30;;
16436;SDS011;8328;52.206;21.006;2023-07-31T14:25:59;2.57;;;1.43;;
16436;SDS011;8328;52.206;21.006;2023-07-31T14:28:25;4.23;;;1.50;;
16436;SDS011;8328;52.206;21.006;2023-07-31T14:30:51;3.27;;;1.50;;
16436;SDS011;8328;52.206;21.006;2023-07-31T14:33:17;5.40;;;1.70;;
16436;SDS011;8328;52.206;21.006;2023-07-31T14:35:43;3.40;;;1.67;;
16436;SDS011;8328;52.206;21.006;2023-07-31T14:38:09;2.30;;;1.50;;
16436;SDS011;8328;52.206;21.006;2023-07-31T14:40:34;3.13;;;1.53;;
16436;SDS011;8328;52.206;21.006;2023-07-31T14:43:01;3.40;;;1.63;;
16436;SDS011;8328;52.206;21.006;2023-07-31T14:45:27;3.17;;;2.17;;
16436;SDS011;8328;52.206;21.006;2023-07-31T14:47:53;5.07;;;2.80;;
16436;SDS011;8328;52.206;21.006;2023-07-31T14:50:20;2.67;;;1.50;;
16436;SDS011;8328;52.206;21.006;2023-07-31T14:52:47;3.17;;;1.63;;
16436;SDS011;8328;52.206;21.006;2023-07-31T14:55:13;2.70;;;1.50;;
16436;SDS011;8328;52.206;21.006;2023-07-31T14:57:39;2.73;;;1.60;;
16436;SDS011;8328;52.206;21.006;2023-07-31T15:00:05;3.93;;;1.60;;
16436;SDS011;8328;52.206;21.006;2023-07-31T15:02:35;2.63;;;1.70;;